createdAt,value
2018-04-14T00:00:30.884Z,0.00
2018-04-14T00:01:31.304Z,0.00
2018-04-14T00:03:25.856Z,0.00
2018-04-14T00:04:26.286Z,0.00
2018-04-14T00:06:20.833Z,0.00
2018-04-14T00:07:21.258Z,0.00
2018-04-14T00:09:15.870Z,0.00
2018-04-14T00:10:16.295Z,0.00
2018-04-14T00:12:10.856Z,0.00
2018-04-14T00:13:11.278Z,0.00
2018-04-14T00:15:05.838Z,0.00
2018-04-14T00:16:06.255Z,0.00
2018-04-14T00:18:00.817Z,0.00
2018-04-14T00:19:01.242Z,0.00
2018-04-14T00:20:55.797Z,0.00
2018-04-14T00:21:56.274Z,0.00
2018-04-14T00:23:50.788Z,0.00
2018-04-14T00:24:51.215Z,0.00
2018-04-14T00:25:51.640Z,0.00
2018-04-14T00:26:52.079Z,0.00
2018-04-14T00:27:52.532Z,0.00
2018-04-14T00:28:52.944Z,0.00
2018-04-14T00:29:53.365Z,0.00
2018-04-14T00:30:53.786Z,0.00
2018-04-14T00:31:54.221Z,0.00
2018-04-14T00:32:54.642Z,0.00
2018-04-14T00:33:55.069Z,0.00
2018-04-14T00:34:55.499Z,0.00
2018-04-14T00:35:55.927Z,0.00
2018-04-14T00:36:56.363Z,0.00
2018-04-14T00:37:56.783Z,0.00
2018-04-14T00:38:57.212Z,0.00
2018-04-14T00:39:57.649Z,0.00
2018-04-14T00:40:58.070Z,0.00
2018-04-14T00:41:58.498Z,0.00
2018-04-14T00:42:58.927Z,0.00
2018-04-14T00:43:59.354Z,0.00
2018-04-14T00:44:59.789Z,0.00
2018-04-14T00:46:00.213Z,0.00
2018-04-14T00:47:00.642Z,0.00
2018-04-14T00:48:01.068Z,0.00
2018-04-14T00:49:01.502Z,0.00
2018-04-14T00:50:01.923Z,0.00
2018-04-14T00:51:02.350Z,0.00
2018-04-14T00:52:02.778Z,0.00
2018-04-14T00:53:03.206Z,0.00
2018-04-14T00:54:03.647Z,0.00
2018-04-14T00:55:04.061Z,0.00
2018-04-14T00:56:04.495Z,0.00
2018-04-14T00:57:04.919Z,0.00
2018-04-14T00:58:05.350Z,0.00
2018-04-14T00:59:05.777Z,0.00
2018-04-14T01:00:06.218Z,0.00
2018-04-14T01:01:06.636Z,0.00
2018-04-14T01:02:07.085Z,0.00
2018-04-14T01:03:07.502Z,0.00
2018-04-14T01:04:07.928Z,0.00
2018-04-14T01:05:08.350Z,0.00
2018-04-14T01:06:08.772Z,0.00
2018-04-14T01:07:09.213Z,0.00
2018-04-14T01:08:09.642Z,0.00
2018-04-14T01:09:10.056Z,0.00
2018-04-14T01:10:10.485Z,0.00
2018-04-14T01:11:10.916Z,0.00
2018-04-14T01:12:11.360Z,0.00
2018-04-14T01:13:11.774Z,0.00
2018-04-14T01:14:12.205Z,0.00
2018-04-14T01:15:12.667Z,0.00
2018-04-14T01:16:13.059Z,0.00
2018-04-14T01:17:13.482Z,0.00
2018-04-14T01:18:13.908Z,0.00
2018-04-14T01:19:14.336Z,0.00
2018-04-14T01:20:14.768Z,0.00
2018-04-14T01:21:15.195Z,0.00
2018-04-14T01:22:15.626Z,0.00
2018-04-14T01:23:16.055Z,0.00
2018-04-14T01:24:16.476Z,0.00
2018-04-14T01:25:16.910Z,0.00
2018-04-14T01:26:17.331Z,0.00
2018-04-14T01:27:17.757Z,0.00
2018-04-14T01:28:18.188Z,0.00
2018-04-14T01:29:18.615Z,0.00
2018-04-14T01:30:19.044Z,0.00
2018-04-14T01:31:19.483Z,0.00
2018-04-14T01:32:19.899Z,0.00
2018-04-14T01:33:20.327Z,0.00
2018-04-14T01:34:20.756Z,0.00
2018-04-14T01:35:21.183Z,0.00
2018-04-14T01:36:21.609Z,0.00
2018-04-14T01:37:22.037Z,0.00
2018-04-14T01:38:22.470Z,0.00
2018-04-14T01:39:22.894Z,0.00
2018-04-14T01:40:23.320Z,0.00
2018-04-14T01:41:23.752Z,0.00
2018-04-14T01:42:24.182Z,0.00
2018-04-14T01:43:24.605Z,0.00
2018-04-14T01:44:25.032Z,0.00
2018-04-14T01:45:25.462Z,0.00
2018-04-14T01:46:25.897Z,0.00
2018-04-14T01:47:26.314Z,0.00
2018-04-14T01:48:26.739Z,0.00
2018-04-14T01:49:27.169Z,0.00
2018-04-14T01:50:27.604Z,0.00
2018-04-14T01:51:28.024Z,0.00
2018-04-14T01:52:28.452Z,0.00
2018-04-14T01:53:28.880Z,0.00
2018-04-14T01:54:29.308Z,0.00
2018-04-14T01:55:29.734Z,0.00
2018-04-14T01:56:30.164Z,0.00
2018-04-14T01:57:30.589Z,0.00
2018-04-14T01:58:31.018Z,0.00
2018-04-14T01:59:31.450Z,0.00
2018-04-14T02:00:31.873Z,0.00
2018-04-14T02:01:32.305Z,0.00
2018-04-14T02:02:32.731Z,0.00
2018-04-14T02:03:33.155Z,0.00
2018-04-14T02:04:33.583Z,0.00
2018-04-14T02:05:34.019Z,0.00
2018-04-14T02:06:34.437Z,0.00
2018-04-14T02:07:34.874Z,0.00
2018-04-14T02:08:35.299Z,0.00
2018-04-14T02:09:35.726Z,0.00
2018-04-14T02:10:36.149Z,0.00
2018-04-14T02:11:36.583Z,0.00
2018-04-14T02:12:37.006Z,0.00
2018-04-14T02:13:37.430Z,0.00
2018-04-14T02:14:37.865Z,0.00
2018-04-14T02:15:38.296Z,0.00
2018-04-14T02:16:38.738Z,0.00
2018-04-14T02:17:39.146Z,0.00
2018-04-14T02:18:39.584Z,0.00
2018-04-14T02:19:39.998Z,0.00
2018-04-14T02:20:40.423Z,0.00
2018-04-14T02:21:40.855Z,0.00
2018-04-14T02:22:41.276Z,0.00
2018-04-14T02:23:41.710Z,0.00
2018-04-14T02:24:42.132Z,0.00
2018-04-14T02:25:42.565Z,0.00
2018-04-14T02:26:42.997Z,0.00
2018-04-14T02:27:43.418Z,0.00
2018-04-14T02:28:43.846Z,0.00
2018-04-14T02:29:44.338Z,0.00
2018-04-14T02:30:44.710Z,0.00
2018-04-14T02:31:45.126Z,0.00
2018-04-14T02:32:45.651Z,0.00
2018-04-14T02:33:45.978Z,0.00
2018-04-14T02:34:46.413Z,0.00
2018-04-14T02:35:46.849Z,0.00
2018-04-14T02:36:47.266Z,0.00
2018-04-14T02:37:47.693Z,0.00
2018-04-14T02:38:48.122Z,0.00
2018-04-14T02:39:48.548Z,0.00
2018-04-14T02:40:48.975Z,0.00
2018-04-14T02:41:49.409Z,0.00
2018-04-14T02:42:49.831Z,0.00
2018-04-14T02:43:50.256Z,0.00
2018-04-14T02:44:50.695Z,0.00
2018-04-14T02:45:51.113Z,0.00
2018-04-14T02:46:51.554Z,0.00
2018-04-14T02:47:51.972Z,0.00
2018-04-14T02:48:52.395Z,0.00
2018-04-14T02:49:52.821Z,0.00
2018-04-14T02:50:53.268Z,0.00
2018-04-14T02:51:53.681Z,0.00
2018-04-14T02:52:54.108Z,0.00
2018-04-14T02:53:54.541Z,0.00
2018-04-14T02:54:54.961Z,0.00
2018-04-14T02:55:55.392Z,0.00
2018-04-14T02:56:55.824Z,0.00
2018-04-14T02:57:56.244Z,0.00
2018-04-14T02:58:56.675Z,0.00
2018-04-14T02:59:57.100Z,0.00
2018-04-14T03:00:57.525Z,0.00
2018-04-14T03:01:57.959Z,0.00
2018-04-14T03:02:58.382Z,0.00
2018-04-14T03:03:58.812Z,0.00
2018-04-14T03:04:59.241Z,0.00
2018-04-14T03:05:59.670Z,0.00
2018-04-14T03:07:00.127Z,0.00
2018-04-14T03:08:00.583Z,0.00
2018-04-14T03:09:00.952Z,0.00
2018-04-14T03:10:01.376Z,0.00
2018-04-14T03:11:01.803Z,0.00
2018-04-14T03:12:02.246Z,0.00
2018-04-14T03:13:02.660Z,0.00
2018-04-14T03:14:03.089Z,0.00
2018-04-14T03:15:03.516Z,0.00
2018-04-14T03:16:03.953Z,0.00
2018-04-14T03:17:04.370Z,0.00
2018-04-14T03:18:04.796Z,0.00
2018-04-14T03:19:05.229Z,0.00
2018-04-14T03:20:05.655Z,0.00
2018-04-14T03:21:06.078Z,0.00
2018-04-14T03:22:06.509Z,0.00
2018-04-14T03:23:06.935Z,0.00
2018-04-14T03:24:07.364Z,0.00
2018-04-14T03:25:07.792Z,0.00
2018-04-14T03:26:08.217Z,0.00
2018-04-14T03:27:08.647Z,0.00
2018-04-14T03:28:09.073Z,0.00
2018-04-14T03:29:09.501Z,0.00
2018-04-14T03:30:09.937Z,0.00
2018-04-14T03:31:10.362Z,0.00
2018-04-14T03:32:10.784Z,0.00
2018-04-14T03:33:11.217Z,0.00
2018-04-14T03:34:11.640Z,0.00
2018-04-14T03:35:12.067Z,0.00
2018-04-14T03:36:12.497Z,0.00
2018-04-14T03:37:12.920Z,0.00
2018-04-14T03:38:13.349Z,0.00
2018-04-14T03:39:13.783Z,0.00
2018-04-14T03:40:14.207Z,0.00
2018-04-14T03:41:14.649Z,0.00
2018-04-14T03:42:15.063Z,0.00
2018-04-14T03:43:15.488Z,0.00
2018-04-14T03:44:15.915Z,0.00
2018-04-14T03:45:16.347Z,0.00
2018-04-14T03:46:16.770Z,0.00
2018-04-14T03:47:17.204Z,0.00
2018-04-14T03:48:17.633Z,0.00
2018-04-14T03:49:18.057Z,0.00
2018-04-14T03:50:18.485Z,0.00
2018-04-14T03:51:18.916Z,0.00
2018-04-14T03:52:19.343Z,0.00
2018-04-14T03:53:19.792Z,0.00
2018-04-14T03:54:20.195Z,0.00
2018-04-14T03:55:20.627Z,0.00
2018-04-14T03:56:21.049Z,0.00
2018-04-14T03:57:21.482Z,0.00
2018-04-14T03:58:21.913Z,0.00
2018-04-14T03:59:22.334Z,0.00
2018-04-14T04:00:22.766Z,0.00
2018-04-14T04:01:23.190Z,0.00
2018-04-14T04:02:23.623Z,0.00
2018-04-14T04:03:24.051Z,0.00
2018-04-14T04:04:24.476Z,0.00
2018-04-14T04:05:24.907Z,0.00
2018-04-14T04:06:25.334Z,0.00
2018-04-14T04:07:25.763Z,0.00
2018-04-14T04:08:26.191Z,0.00
2018-04-14T04:09:26.612Z,0.00
2018-04-14T04:10:27.043Z,0.00
2018-04-14T04:11:27.470Z,0.00
2018-04-14T04:12:27.902Z,0.00
2018-04-14T04:13:28.325Z,0.00
2018-04-14T04:14:28.759Z,0.00
2018-04-14T04:15:29.181Z,0.00
2018-04-14T04:16:29.614Z,0.00
2018-04-14T04:17:30.036Z,0.00
2018-04-14T04:18:30.464Z,0.00
2018-04-14T04:19:30.900Z,0.00
2018-04-14T04:20:31.322Z,0.00
2018-04-14T04:21:31.747Z,0.00
2018-04-14T04:22:32.179Z,0.00
2018-04-14T04:23:32.610Z,0.00
2018-04-14T04:24:33.031Z,0.00
2018-04-14T04:25:33.458Z,0.00
2018-04-14T04:26:33.886Z,0.00
2018-04-14T04:27:34.314Z,0.00
2018-04-14T04:28:34.750Z,0.00
2018-04-14T04:29:35.170Z,0.00
2018-04-14T04:30:35.598Z,0.00
2018-04-14T04:31:36.024Z,0.00
2018-04-14T04:32:36.462Z,0.00
2018-04-14T04:33:36.883Z,0.00
2018-04-14T04:34:37.314Z,0.00
2018-04-14T04:35:37.741Z,0.00
2018-04-14T04:36:38.164Z,0.00
2018-04-14T04:37:38.592Z,0.00
2018-04-14T04:38:39.020Z,0.00
2018-04-14T04:39:39.444Z,0.00
2018-04-14T04:40:39.872Z,0.00
2018-04-14T04:41:40.307Z,0.00
2018-04-14T04:42:40.730Z,0.00
2018-04-14T04:43:41.161Z,0.00
2018-04-14T04:44:41.583Z,0.00
2018-04-14T04:45:42.014Z,0.00
2018-04-14T04:46:42.439Z,0.00
2018-04-14T04:47:42.866Z,0.00
2018-04-14T04:48:43.304Z,0.00
2018-04-14T04:49:43.718Z,0.00
2018-04-14T04:50:44.157Z,0.00
2018-04-14T04:51:44.578Z,0.00
2018-04-14T04:52:45.011Z,0.00
2018-04-14T04:53:45.440Z,0.00
2018-04-14T04:54:45.861Z,0.00
2018-04-14T04:55:46.283Z,0.00
2018-04-14T04:56:46.713Z,0.00
2018-04-14T04:57:47.136Z,0.00
2018-04-14T04:58:47.569Z,0.00
2018-04-14T04:59:47.995Z,0.00
2018-04-14T05:00:48.423Z,0.00
2018-04-14T05:01:48.848Z,0.00
2018-04-14T05:02:49.277Z,0.00
2018-04-14T05:03:49.706Z,0.00
2018-04-14T05:04:50.128Z,0.00
2018-04-14T05:05:50.560Z,0.00
2018-04-14T05:06:50.984Z,0.00
2018-04-14T05:07:51.411Z,0.00
2018-04-14T05:08:51.839Z,0.00
2018-04-14T05:09:52.269Z,0.00
2018-04-14T05:10:52.693Z,0.00
2018-04-14T05:11:53.122Z,0.00
2018-04-14T05:12:53.548Z,0.00
2018-04-14T05:13:53.976Z,0.00
2018-04-14T05:14:54.399Z,0.00
2018-04-14T05:15:54.829Z,0.00
2018-04-14T05:16:55.253Z,0.00
2018-04-14T05:17:55.685Z,0.00
2018-04-14T05:18:56.110Z,0.00
2018-04-14T05:19:56.536Z,0.00
2018-04-14T05:20:56.962Z,0.00
2018-04-14T05:21:57.387Z,0.00
2018-04-14T05:22:57.825Z,0.00
2018-04-14T05:23:58.242Z,0.00
2018-04-14T05:24:58.673Z,0.00
2018-04-14T05:25:59.101Z,0.00
2018-04-14T05:26:59.541Z,0.00
2018-04-14T05:27:59.957Z,0.00
2018-04-14T05:29:00.382Z,0.00
2018-04-14T05:30:00.819Z,0.00
2018-04-14T05:31:01.236Z,0.00
2018-04-14T05:32:01.671Z,0.00
2018-04-14T05:33:02.092Z,0.00
2018-04-14T05:34:02.523Z,0.00
2018-04-14T05:35:02.948Z,0.00
2018-04-14T05:36:03.376Z,0.00
2018-04-14T05:37:03.800Z,0.00
2018-04-14T05:38:04.228Z,0.00
2018-04-14T05:39:04.657Z,0.00
2018-04-14T05:40:05.084Z,0.00
2018-04-14T05:41:05.509Z,0.00
2018-04-14T05:42:05.935Z,0.00
2018-04-14T05:43:06.363Z,0.00
2018-04-14T05:44:06.797Z,0.00
2018-04-14T05:45:07.225Z,0.00
2018-04-14T05:46:07.651Z,0.00
2018-04-14T05:47:08.079Z,0.00
2018-04-14T05:48:08.499Z,0.00
2018-04-14T05:49:08.936Z,0.00
2018-04-14T05:50:09.368Z,0.00
2018-04-14T05:51:09.789Z,0.00
2018-04-14T05:52:10.222Z,0.00
2018-04-14T05:53:10.644Z,0.00
2018-04-14T05:54:11.074Z,0.00
2018-04-14T05:55:11.500Z,0.00
2018-04-14T05:56:11.928Z,2.38
2018-04-14T05:57:12.353Z,2.76
2018-04-14T05:58:12.781Z,1.33
2018-04-14T05:59:13.211Z,1.43
2018-04-14T06:00:13.671Z,2.00
2018-04-14T06:01:14.138Z,1.04
2018-04-14T06:02:14.489Z,0.67
2018-04-14T06:03:14.921Z,1.04
2018-04-14T06:04:15.346Z,2.48
2018-04-14T06:05:15.778Z,2.38
2018-04-14T06:06:16.201Z,1.72
2018-04-14T06:07:16.632Z,0.76
2018-04-14T06:08:17.056Z,1.90
2018-04-14T06:09:17.509Z,2.38
2018-04-14T06:10:17.909Z,1.90
2018-04-14T06:11:18.353Z,2.67
2018-04-14T06:12:18.768Z,2.57
2018-04-14T06:13:19.197Z,4.29
2018-04-14T06:14:19.626Z,4.77
2018-04-14T06:15:20.052Z,5.53
2018-04-14T06:16:20.483Z,5.43
2018-04-14T06:17:20.907Z,5.72
2018-04-14T06:18:21.340Z,6.10
2018-04-14T06:19:21.764Z,4.96
2018-04-14T06:20:22.191Z,4.48
2018-04-14T06:21:22.613Z,4.58
2018-04-14T06:22:23.083Z,7.25
2018-04-14T06:23:23.473Z,7.82
2018-04-14T06:24:23.910Z,9.16
2018-04-14T06:25:24.359Z,8.49
2018-04-14T06:26:24.763Z,10.88
2018-04-14T06:27:25.253Z,10.77
2018-04-14T06:28:25.645Z,10.97
2018-04-14T06:29:26.093Z,9.16
2018-04-14T06:30:26.497Z,8.49
2018-04-14T06:31:26.922Z,8.58
2018-04-14T06:32:27.348Z,8.20
2018-04-14T06:33:27.864Z,9.25
2018-04-14T06:34:28.203Z,11.25
2018-04-14T06:35:28.632Z,13.06
2018-04-14T06:36:29.115Z,11.72
2018-04-14T06:37:29.495Z,12.68
2018-04-14T06:38:29.943Z,12.21
2018-04-14T06:39:30.380Z,11.63
2018-04-14T06:40:30.762Z,11.64
2018-04-14T06:41:31.214Z,13.92
2018-04-14T06:42:31.661Z,13.73
2018-04-14T06:43:32.044Z,12.49
2018-04-14T06:44:32.467Z,11.16
2018-04-14T06:45:32.919Z,12.21
2018-04-14T06:46:33.324Z,12.40
2018-04-14T06:47:33.781Z,12.02
2018-04-14T06:48:34.182Z,13.64
2018-04-14T06:49:34.613Z,15.06
2018-04-14T06:50:35.094Z,15.64
2018-04-14T06:51:35.500Z,15.93
2018-04-14T06:52:35.928Z,17.27
2018-04-14T06:53:36.331Z,15.93
2018-04-14T06:54:36.788Z,16.89
2018-04-14T06:55:37.181Z,18.03
2018-04-14T06:56:37.639Z,18.03
2018-04-14T06:57:38.037Z,20.61
2018-04-14T06:58:38.484Z,20.23
2018-04-14T06:59:38.913Z,19.56
2018-04-14T07:00:39.328Z,22.89
2018-04-14T07:01:39.804Z,23.38
2018-04-14T07:02:40.184Z,24.14
2018-04-14T07:03:40.617Z,23.28
2018-04-14T07:04:41.055Z,23.85
2018-04-14T07:05:41.472Z,23.18
2018-04-14T07:06:41.941Z,25.28
2018-04-14T07:07:42.335Z,24.90
2018-04-14T07:08:42.763Z,24.80
2018-04-14T07:09:43.215Z,24.04
2018-04-14T07:10:43.612Z,24.15
2018-04-14T07:11:44.044Z,25.49
2018-04-14T07:12:44.508Z,27.68
2018-04-14T07:13:44.907Z,31.60
2018-04-14T07:14:45.329Z,30.74
2018-04-14T07:15:45.768Z,33.89
2018-04-14T07:16:46.187Z,33.50
2018-04-14T07:17:46.631Z,34.27
2018-04-14T07:18:47.049Z,34.00
2018-04-14T07:19:47.522Z,39.14
2018-04-14T07:20:48.019Z,38.39
2018-04-14T07:21:48.348Z,39.61
2018-04-14T07:22:48.813Z,37.90
2018-04-14T07:23:49.227Z,36.46
2018-04-14T07:24:49.662Z,37.71
2018-04-14T07:25:50.074Z,36.96
2018-04-14T07:26:50.526Z,42.21
2018-04-14T07:27:50.922Z,42.97
2018-04-14T07:28:51.389Z,44.70
2018-04-14T07:29:51.788Z,44.70
2018-04-14T07:30:52.228Z,47.85
2018-04-14T07:31:52.649Z,46.42
2018-04-14T07:32:53.099Z,47.85
2018-04-14T07:33:53.522Z,47.18
2018-04-14T07:34:53.941Z,50.26
2018-04-14T07:35:54.371Z,50.90
2018-04-14T07:36:54.813Z,54.18
2018-04-14T07:37:55.231Z,54.75
2018-04-14T07:38:55.688Z,56.85
2018-04-14T07:39:56.112Z,58.16
2018-04-14T07:40:56.532Z,55.01
2018-04-14T07:41:56.989Z,55.58
2018-04-14T07:42:57.479Z,55.49
2018-04-14T07:43:57.835Z,56.16
2018-04-14T07:44:58.263Z,54.47
2018-04-14T07:45:58.702Z,57.14
2018-04-14T07:46:59.153Z,56.18
2018-04-14T07:47:59.549Z,60.39
2018-04-14T07:48:59.982Z,60.30
2018-04-14T07:50:00.430Z,60.20
2018-04-14T07:51:00.847Z,60.49
2018-04-14T07:52:01.297Z,61.92
2018-04-14T07:53:01.737Z,60.77
2018-04-14T07:54:02.161Z,66.06
2018-04-14T07:55:02.603Z,70.61
2018-04-14T07:56:03.031Z,67.40
2018-04-14T07:57:03.452Z,66.06
2018-04-14T07:58:03.903Z,69.56
2018-04-14T07:59:04.351Z,70.71
2018-04-14T08:00:04.729Z,70.07
2018-04-14T08:01:05.181Z,70.04
2018-04-14T08:02:05.626Z,66.60
2018-04-14T08:03:06.028Z,70.23
2018-04-14T08:04:06.488Z,66.54
2018-04-14T08:05:06.884Z,70.65
2018-04-14T08:06:07.328Z,73.80
2018-04-14T08:07:07.756Z,73.71
2018-04-14T08:08:08.196Z,74.95
2018-04-14T08:09:08.646Z,74.19
2018-04-14T08:10:09.054Z,74.66
2018-04-14T08:11:09.493Z,74.19
2018-04-14T08:12:09.965Z,72.66
2018-04-14T08:13:10.371Z,74.82
2018-04-14T08:14:10.808Z,72.43
2018-04-14T08:15:11.220Z,72.81
2018-04-14T08:16:11.647Z,71.76
2018-04-14T08:17:12.082Z,70.23
2018-04-14T08:18:12.537Z,70.14
2018-04-14T08:19:12.938Z,69.66
2018-04-14T08:20:13.378Z,68.41
2018-04-14T08:21:13.816Z,69.56
2018-04-14T08:22:14.235Z,69.09
2018-04-14T08:23:14.712Z,71.28
2018-04-14T08:24:15.101Z,70.90
2018-04-14T08:25:15.529Z,71.86
2018-04-14T08:26:15.985Z,73.19
2018-04-14T08:27:16.395Z,73.19
2018-04-14T08:28:16.828Z,74.44
2018-04-14T08:29:17.267Z,73.19
2018-04-14T08:30:17.722Z,73.48
2018-04-14T08:31:18.137Z,74.05
2018-04-14T08:32:18.585Z,73.86
2018-04-14T08:33:18.974Z,73.10
2018-04-14T08:34:19.450Z,74.05
2018-04-14T08:35:19.848Z,72.72
2018-04-14T08:36:20.275Z,73.71
2018-04-14T08:37:20.794Z,74.38
2018-04-14T08:38:21.122Z,72.75
2018-04-14T08:39:21.595Z,72.28
2018-04-14T08:40:21.985Z,76.96
2018-04-14T08:41:22.436Z,77.00
2018-04-14T08:42:22.849Z,77.67
2018-04-14T08:43:23.278Z,80.73
2018-04-14T08:44:23.713Z,81.68
2018-04-14T08:45:24.145Z,82.78
2018-04-14T08:46:24.575Z,82.78
2018-04-14T08:47:25.017Z,85.41
2018-04-14T08:48:25.458Z,82.68
2018-04-14T08:49:25.903Z,82.97
2018-04-14T08:50:26.344Z,84.26
2018-04-14T08:51:26.781Z,85.36
2018-04-14T08:52:27.195Z,84.02
2018-04-14T08:53:27.650Z,84.74
2018-04-14T08:54:28.054Z,84.06
2018-04-14T08:55:28.485Z,84.98
2018-04-14T08:56:28.913Z,85.08
2018-04-14T08:57:29.352Z,84.35
2018-04-14T08:58:29.846Z,84.45
2018-04-14T08:59:30.218Z,84.74
2018-04-14T09:00:30.643Z,85.94
2018-04-14T09:01:31.082Z,85.27
2018-04-14T09:02:31.532Z,86.80
2018-04-14T09:03:31.966Z,86.13
2018-04-14T09:04:32.403Z,84.79
2018-04-14T09:05:32.835Z,85.27
2018-04-14T09:06:33.257Z,87.08
2018-04-14T09:07:33.703Z,86.80
2018-04-14T09:08:34.132Z,86.70
2018-04-14T09:09:34.568Z,86.94
2018-04-14T09:10:34.969Z,85.36
2018-04-14T09:11:35.442Z,86.17
2018-04-14T09:12:35.860Z,86.74
2018-04-14T09:13:36.271Z,86.51
2018-04-14T09:14:36.711Z,86.99
2018-04-14T09:15:37.198Z,86.99
2018-04-14T09:16:37.590Z,87.66
2018-04-14T09:17:38.011Z,87.95
2018-04-14T09:18:38.443Z,87.56
2018-04-14T09:19:38.880Z,87.37
2018-04-14T09:20:39.313Z,88.48
2018-04-14T09:21:39.744Z,88.67
2018-04-14T09:22:40.173Z,88.00
2018-04-14T09:23:40.604Z,87.62
2018-04-14T09:24:41.040Z,88.09
2018-04-14T09:25:41.487Z,88.09
2018-04-14T09:26:41.899Z,87.52
2018-04-14T09:27:42.326Z,88.29
2018-04-14T09:28:42.766Z,87.90
2018-04-14T09:29:43.238Z,88.33
2018-04-14T09:30:43.631Z,88.62
2018-04-14T09:31:44.055Z,89.00
2018-04-14T09:32:44.514Z,87.66
2018-04-14T09:33:44.919Z,88.43
2018-04-14T09:34:45.389Z,88.66
2018-04-14T09:35:45.824Z,87.85
2018-04-14T09:36:46.228Z,88.66
2018-04-14T09:37:46.720Z,88.52
2018-04-14T09:38:47.110Z,89.00
2018-04-14T09:39:47.529Z,88.81
2018-04-14T09:40:48.005Z,89.53
2018-04-14T09:41:48.386Z,89.76
2018-04-14T09:42:48.831Z,89.76
2018-04-14T09:43:49.272Z,88.95
2018-04-14T09:44:49.699Z,89.38
2018-04-14T09:45:50.115Z,89.52
2018-04-14T09:46:50.558Z,89.76
2018-04-14T09:47:50.994Z,90.39
2018-04-14T09:48:51.420Z,89.86
2018-04-14T09:49:51.862Z,89.90
2018-04-14T09:50:52.313Z,90.00
2018-04-14T09:51:52.726Z,89.76
2018-04-14T09:52:53.157Z,90.38
2018-04-14T09:53:53.599Z,91.00
2018-04-14T09:54:54.043Z,90.95
2018-04-14T09:55:54.457Z,91.00
2018-04-14T09:56:54.935Z,91.72
2018-04-14T09:57:55.368Z,91.72
2018-04-14T09:58:55.802Z,91.72
2018-04-14T09:59:56.222Z,91.10
2018-04-14T10:00:56.647Z,91.63
2018-04-14T10:01:57.093Z,92.21
2018-04-14T10:02:57.525Z,91.96
2018-04-14T10:03:57.956Z,91.53
2018-04-14T10:04:58.411Z,91.72
2018-04-14T10:05:58.820Z,92.54
2018-04-14T10:06:59.267Z,91.77
2018-04-14T10:07:59.696Z,91.29
2018-04-14T10:09:00.128Z,91.67
2018-04-14T10:10:00.561Z,91.77
2018-04-14T10:11:01.004Z,91.29
2018-04-14T10:12:01.442Z,91.44
2018-04-14T10:13:01.871Z,91.86
2018-04-14T10:14:02.294Z,91.96
2018-04-14T10:15:02.725Z,91.29
2018-04-14T10:16:03.165Z,90.76
2018-04-14T10:17:03.603Z,92.15
2018-04-14T10:18:04.028Z,91.14
2018-04-14T10:19:04.476Z,91.77
2018-04-14T10:20:04.899Z,91.86
2018-04-14T10:21:05.333Z,92.15
2018-04-14T10:22:05.767Z,92.15
2018-04-14T10:23:06.201Z,91.77
2018-04-14T10:24:06.663Z,91.34
2018-04-14T10:25:07.098Z,91.00
2018-04-14T10:26:07.506Z,90.86
2018-04-14T10:27:07.994Z,90.71
2018-04-14T10:28:08.392Z,89.94
2018-04-14T10:29:08.809Z,89.61
2018-04-14T10:30:09.272Z,89.18
2018-04-14T10:31:09.688Z,89.27
2018-04-14T10:32:10.112Z,90.28
2018-04-14T10:33:10.549Z,89.89
2018-04-14T10:34:10.983Z,88.79
2018-04-14T10:35:11.435Z,89.32
2018-04-14T10:36:11.857Z,87.88
2018-04-14T10:37:12.319Z,88.74
2018-04-14T10:38:12.756Z,88.49
2018-04-14T10:39:13.213Z,87.88
2018-04-14T10:40:13.675Z,87.59
2018-04-14T10:41:14.042Z,89.85
2018-04-14T10:42:14.503Z,89.94
2018-04-14T10:43:14.924Z,89.94
2018-04-14T10:44:15.400Z,90.37
2018-04-14T10:45:15.822Z,88.79
2018-04-14T10:46:16.231Z,88.31
2018-04-14T10:47:16.740Z,87.58
2018-04-14T10:48:17.106Z,85.71
2018-04-14T10:49:17.587Z,85.13
2018-04-14T10:50:17.988Z,84.74
2018-04-14T10:51:18.447Z,84.17
2018-04-14T10:52:18.863Z,84.03
2018-04-14T10:53:19.298Z,85.71
2018-04-14T10:54:19.743Z,85.13
2018-04-14T10:55:20.177Z,85.95
2018-04-14T10:56:20.631Z,87.25
2018-04-14T10:57:21.056Z,88.21
2018-04-14T10:58:21.498Z,87.78
2018-04-14T10:59:21.936Z,89.08
2018-04-14T11:00:22.383Z,89.12
2018-04-14T11:01:22.801Z,88.69
2018-04-14T11:02:23.248Z,87.73
2018-04-14T11:03:23.700Z,86.91
2018-04-14T11:04:24.123Z,85.71
2018-04-14T11:05:24.567Z,86.77
2018-04-14T11:06:25.003Z,86.52
2018-04-14T11:07:25.441Z,85.41
2018-04-14T11:08:25.892Z,84.50
2018-04-14T11:09:26.321Z,83.53
2018-04-14T11:10:26.768Z,82.76
2018-04-14T11:11:27.196Z,83.97
2018-04-14T11:12:27.642Z,84.99
2018-04-14T11:13:28.095Z,85.13
2018-04-14T11:14:28.518Z,83.11
2018-04-14T11:15:28.988Z,84.01
2018-04-14T11:16:29.389Z,84.01
2018-04-14T11:17:29.836Z,83.29
2018-04-14T11:18:30.298Z,82.81
2018-04-14T11:19:30.712Z,82.17
2018-04-14T11:20:31.285Z,82.60
2018-04-14T11:21:31.610Z,79.43
2018-04-14T11:22:32.056Z,79.50
2018-04-14T11:23:32.472Z,80.14
2018-04-14T11:24:32.924Z,79.58
2018-04-14T11:25:33.363Z,80.06
2018-04-14T11:26:33.801Z,79.28
2018-04-14T11:27:34.249Z,79.48
2018-04-14T11:28:34.692Z,80.38
2018-04-14T11:29:35.141Z,79.48
2018-04-14T11:30:35.592Z,79.96
2018-04-14T11:31:36.017Z,81.07
2018-04-14T11:32:36.456Z,81.61
2018-04-14T11:33:36.930Z,82.57
2018-04-14T11:34:37.347Z,83.06
2018-04-14T11:35:37.801Z,83.78
2018-04-14T11:36:38.230Z,84.74
2018-04-14T11:37:38.678Z,84.36
2018-04-14T11:38:39.118Z,84.94
2018-04-14T11:39:39.542Z,84.70
2018-04-14T11:40:39.984Z,86.14
2018-04-14T11:41:40.426Z,87.58
2018-04-14T11:42:40.858Z,87.35
2018-04-14T11:43:41.301Z,87.39
2018-04-14T11:44:41.734Z,87.19
2018-04-14T11:45:42.177Z,86.66
2018-04-14T11:46:42.620Z,86.76
2018-04-14T11:47:43.053Z,86.72
2018-04-14T11:48:43.496Z,87.92
2018-04-14T11:49:43.931Z,87.92
2018-04-14T11:50:44.370Z,89.99
2018-04-14T11:51:44.818Z,90.37
2018-04-14T11:52:45.242Z,90.08
2018-04-14T11:53:45.679Z,89.65
2018-04-14T11:54:46.133Z,88.93
2018-04-14T11:55:46.614Z,88.54
2018-04-14T11:56:47.000Z,88.79
2018-04-14T11:57:47.438Z,88.49
2018-04-14T11:58:47.876Z,88.45
2018-04-14T11:59:48.310Z,88.06
2018-04-14T12:00:48.744Z,87.92
2018-04-14T12:01:49.184Z,88.02
2018-04-14T12:02:49.627Z,88.21
2018-04-14T12:03:50.063Z,87.92
2018-04-14T12:04:50.498Z,87.98
2018-04-14T12:05:50.935Z,89.79
2018-04-14T12:06:51.377Z,90.18
2018-04-14T12:07:51.807Z,90.85
2018-04-14T12:08:52.244Z,91.05
2018-04-14T12:09:52.708Z,91.42
2018-04-14T12:10:53.128Z,91.42
2018-04-14T12:11:53.551Z,91.38
2018-04-14T12:12:53.987Z,92.05
2018-04-14T12:13:54.427Z,93.49
2018-04-14T12:14:54.875Z,94.49
2018-04-14T12:15:55.347Z,94.69
2018-04-14T12:16:55.767Z,94.59
2018-04-14T12:17:56.167Z,94.79
2018-04-14T12:18:56.612Z,95.17
2018-04-14T12:19:57.033Z,95.89
2018-04-14T12:20:57.504Z,96.03
2018-04-14T12:21:57.917Z,96.89
2018-04-14T12:22:58.354Z,98.33
2018-04-14T12:23:58.802Z,98.72
2018-04-14T12:24:59.236Z,98.24
2018-04-14T12:25:59.692Z,98.62
2018-04-14T12:27:00.103Z,97.76
2018-04-14T12:28:00.550Z,97.42
2018-04-14T12:29:00.990Z,97.04
2018-04-14T12:30:01.419Z,93.07
2018-04-14T12:31:01.869Z,91.34
2018-04-14T12:32:02.294Z,89.29
2018-04-14T12:33:02.706Z,88.43
2018-04-14T12:34:03.136Z,86.51
2018-04-14T12:35:03.596Z,85.21
2018-04-14T12:36:03.989Z,83.93
2018-04-14T12:37:04.433Z,81.92
2018-04-14T12:38:04.883Z,82.40
2018-04-14T12:39:05.324Z,81.92
2018-04-14T12:40:05.753Z,79.62
2018-04-14T12:41:06.182Z,76.84
2018-04-14T12:42:06.624Z,76.46
2018-04-14T12:43:07.055Z,77.04
2018-04-14T12:44:07.490Z,77.23
2018-04-14T12:45:07.927Z,76.18
2018-04-14T12:46:08.325Z,72.92
2018-04-14T12:47:08.745Z,68.62
2018-04-14T12:48:09.183Z,64.95
2018-04-14T12:49:09.611Z,64.56
2018-04-14T12:50:10.050Z,63.03
2018-04-14T12:51:10.488Z,63.89
2018-04-14T12:52:10.905Z,64.75
2018-04-14T12:53:11.340Z,64.28
2018-04-14T12:54:11.785Z,65.08
2018-04-14T12:55:12.219Z,61.91
2018-04-14T12:56:12.638Z,60.48
2018-04-14T12:57:13.103Z,61.34
2018-04-14T12:58:13.502Z,61.72
2018-04-14T12:59:13.937Z,60.77
2018-04-14T13:00:14.386Z,64.98
2018-04-14T13:01:14.800Z,64.50
2018-04-14T13:02:15.235Z,63.06
2018-04-14T13:03:15.669Z,63.73
2018-04-14T13:04:16.130Z,65.45
2018-04-14T13:05:16.546Z,65.26
2018-04-14T13:06:16.966Z,66.41
2018-04-14T13:07:17.397Z,66.03
2018-04-14T13:08:17.823Z,65.55
2018-04-14T13:09:18.278Z,65.55
2018-04-14T13:10:18.691Z,67.27
2018-04-14T13:11:19.128Z,68.80
2018-04-14T13:12:19.557Z,66.93
2018-04-14T13:13:19.991Z,69.42
2018-04-14T13:14:20.421Z,70.24
2018-04-14T13:15:20.852Z,69.99
2018-04-14T13:16:21.284Z,70.76
2018-04-14T13:17:21.727Z,70.56